Latest Weather Observations for Beerburrum

IDQ60801

Issued at 7:02 pm EST Saturday 2 July 2016 (issued every 30 minutes, with the page automatically refreshed every 10 minutes)

About weather observations | Map of weather stations | Latest weather observations for QLD | Other Formats
Station Details ID: 040284 Name: BEERBURRUM FOREST STATION Lat: -26.96 Lon: 152.96 Height: 48.0 m
Data from the previous 72 hours. | See also: Recent months at Beerburrum
Date/Time
EST
Temp
°C
App
Temp
°C
Dew
Point
°C
Rel
Hum
%
Delta-T
°C
Wind Press
QNH
hPa
Press
MSL
hPa
Rain since
9am
mm
Dir  Spd
km/h
Gust
km/h
Spd
kts
Gust
kts
02/07:00pm 9.9 9.3 7.5 85 1.1 CALM 0 0 0 0 - - 0.0
02/06:30pm 11.2 10.1 8.4 83 1.4 N 4 6 2 3 - - 0.0
02/06:00pm 11.5 11.1 8.4 81 1.5 CALM 0 0 0 0 - - 0.0
02/05:30pm 12.4 12.0 8.1 75 2.1 CALM 0 0 0 0 - - 0.0
02/05:00pm 14.2 13.8 8.2 67 3.0 CALM 0 0 0 0 - - 0.0
02/04:30pm 16.3 15.4 7.8 57 4.3 ENE 2 6 1 3 - - 0.0
02/04:00pm 18.4 16.8 7.8 50 5.4 ESE 6 9 3 5 - - 0.0
02/03:30pm 19.1 17.2 6.6 44 6.3 E 6 11 3 6 - - 0.0
02/03:00pm 19.1 17.0 6.6 44 6.3 SE 7 13 4 7 - - 0.0
02/02:30pm 19.3 17.3 6.1 42 6.6 S 6 9 3 5 - - 0.0
02/02:00pm 20.2 18.2 6.2 40 7.0 SSW 6 9 3 5 - - 0.0
02/01:30pm 19.7 17.8 5.0 38 7.2 S 4 9 2 5 - - 0.0
02/01:00pm 19.0 16.3 3.6 36 7.3 ESE 7 11 4 6 - - 0.0
02/12:30pm 19.3 17.0 5.0 39 7.0 ESE 6 11 3 6 - - 0.0
02/12:00pm 18.9 16.7 5.4 41 6.6 S 6 11 3 6 - - 0.0
02/11:30am 18.3 15.9 4.5 40 6.6 SSE 6 9 3 5 - - 0.0
02/11:00am 18.2 15.8 4.4 40 6.6 SSW 6 9 3 5 - - 0.0
02/10:30am 17.4 14.9 3.7 40 6.4 SW 6 11 3 6 - - 0.0
02/10:00am 16.6 15.1 4.9 46 5.6 SW 2 7 1 4 - - 0.0
02/09:30am 15.3 13.4 4.7 49 5.0 S 4 7 2 4 - - 0.0
02/09:00am 14.8 12.9 5.1 52 4.6 SW 4 7 2 4 - - 0.2
02/08:30am 13.5 12.3 4.6 55 4.1 CALM 0 0 0 0 - - 0.2
02/08:00am 11.1 10.0 5.2 67 2.7 CALM 0 0 0 0 - - 0.2
02/07:30am 9.4 6.9 3.8 68 2.4 SSW 6 7 3 4 - - 0.2
02/07:00am 9.4 6.8 4.0 69 2.4 SW 7 11 4 6 - - 0.2
02/06:30am 8.9 7.1 3.5 69 2.3 S 2 7 1 4 - - 0.2
02/06:00am 9.2 6.7 3.8 69 2.4 SW 6 19 3 10 - - 0.2
02/05:30am 9.5 6.8 3.5 66 2.6 SW 7 11 4 6 - - 0.2
02/05:00am 9.8 7.1 3.5 65 2.7 SW 7 13 4 7 - - 0.2
02/04:30am 10.3 7.6 3.8 64 2.9 WSW 7 13 4 7 - - 0.2
02/04:00am 10.4 7.7 3.7 63 3.0 WSW 7 11 4 6 - - 0.2
02/03:30am 10.9 8.3 4.1 63 3.0 SW 7 15 4 8 - - 0.2
02/03:00am 10.1 7.5 4.0 66 2.7 WSW 7 15 4 8 - - 0.2
02/02:30am 10.3 8.7 4.5 67 2.6 SW 2 7 1 4 - - 0.2
02/02:00am 10.3 8.4 4.9 69 2.4 SW 4 9 2 5 - - 0.2
02/01:30am 11.0 8.6 4.2 63 3.0 WSW 6 9 3 5 - - 0.2
02/01:00am 11.5 9.1 4.3 61 3.2 WSW 6 17 3 9 - - 0.2
02/12:30am 11.1 8.9 5.2 67 2.7 WSW 6 11 3 6 - - 0.2
02/12:00am 11.0 9.5 4.9 66 2.8 WSW 2 6 1 3 - - 0.2
 
Date/Time
EST
Temp
°C
App
Temp
°C
Dew
Point
°C
Rel
Hum
%
Delta-T
°C
Wind Press
QNH
hPa
Press
MSL
hPa
Rain since
9am
mm
Dir  Spd
km/h
Gust
km/h
Spd
kts
Gust
kts
01/11:30pm 12.1 9.8 4.8 61 3.3 SW 6 9 3 5 - - 0.2
01/11:00pm 13.1 10.9 5.3 59 3.6 W 6 11 3 6 - - 0.2
01/10:30pm 11.8 9.5 5.7 66 2.8 WSW 7 13 4 7 - - 0.2
01/10:00pm 12.4 11.0 5.3 62 3.3 WSW 2 6 1 3 - - 0.2
01/09:30pm 10.9 9.6 6.1 72 2.2 WSW 2 6 1 3 - - 0.2
01/09:00pm 10.7 9.8 5.9 72 2.2 CALM 0 0 0 0 - - 0.2
01/08:30pm 11.2 10.1 5.3 67 2.7 CALM 0 0 0 0 - - 0.2
01/08:00pm 11.2 10.3 6.1 71 2.4 CALM 0 0 0 0 - - 0.2
01/07:30pm 11.4 10.2 6.5 72 2.3 SW 2 6 1 3 - - 0.2
01/07:00pm 12.5 11.3 6.3 66 2.9 SW 2 6 1 3 - - 0.2
01/06:30pm 12.5 11.1 5.7 63 3.2 WSW 2 6 1 3 - - 0.2
01/06:00pm 12.7 11.9 6.5 66 3.0 CALM 0 6 0 3 - - 0.2
01/05:30pm 14.4 13.4 5.7 56 4.1 CALM 0 0 0 0 - - 0.2
01/05:00pm 16.1 15.0 5.1 48 5.2 CALM 0 0 0 0 - - 0.2
01/04:30pm 18.3 16.1 5.2 42 6.3 W 6 13 3 7 - - 0.2
01/04:00pm 21.0 19.2 5.4 36 7.7 WSW 4 9 2 5 - - 0.2
01/03:30pm 21.8 19.7 5.7 35 8.1 WSW 6 9 3 5 - - 0.2
01/03:00pm 22.0 19.7 5.0 33 8.4 W 6 11 3 6 - - 0.2
01/02:30pm 22.2 19.1 3.8 30 8.9 W 9 17 5 9 - - 0.2
01/02:00pm 22.2 19.3 2.8 28 9.2 W 7 13 4 7 - - 0.2
01/01:30pm 21.8 18.8 3.9 31 8.7 WNW 9 17 5 9 - - 0.2
01/01:00pm 21.7 18.7 4.3 32 8.5 W 9 17 5 9 - - 0.2
01/12:30pm 21.3 18.1 5.2 35 8.0 WSW 11 22 6 12 - - 0.2
01/12:00pm 21.2 18.5 5.5 36 7.8 WSW 9 20 5 11 - - 0.2
01/11:30am 21.1 18.7 7.0 40 7.2 W 9 19 5 10 - - 0.2
01/11:00am 20.5 18.5 7.2 42 6.8 W 7 17 4 9 - - 0.0
01/10:30am 19.2 17.6 8.8 51 5.4 W 7 13 4 7 - - 0.0
01/10:00am 18.8 17.4 9.6 55 4.9 W 7 13 4 7 - - 0.0
01/09:30am 17.8 16.4 9.4 58 4.4 WNW 7 15 4 8 - - 0.0
01/09:00am 17.3 15.8 10.7 65 3.5 WNW 9 20 5 11 - - 0.0
01/08:30am 16.4 14.2 10.7 69 3.0 WNW 13 26 7 14 - - 0.0
01/08:00am 16.3 14.3 11.5 73 2.6 WNW 13 26 7 14 - - 0.0
01/07:30am 15.1 13.7 12.2 83 1.6 W 11 24 6 13 - - 0.0
01/07:00am 13.9 13.1 13.0 94 0.5 W 9 17 5 9 - - 0.0
01/06:30am 10.8 10.0 9.7 93 0.6 WSW 4 7 2 4 - - 0.0
01/06:00am 10.5 10.4 9.3 92 0.6 CALM 0 0 0 0 - - 0.0
01/05:30am 10.9 10.8 9.3 90 0.8 CALM 0 0 0 0 - - 0.0
01/05:00am 12.2 11.5 11.3 94 0.5 NNW 6 9 3 5 - - 0.0
01/04:30am 11.3 11.3 9.9 91 0.7 CALM 0 6 0 3 - - 0.0
01/04:00am 12.0 12.2 10.6 91 0.7 CALM 0 6 0 3 - - 0.0
01/03:30am 12.7 13.1 11.3 91 0.7 CALM 0 0 0 0 - - 0.0
01/03:00am 13.7 13.3 12.3 91 0.8 NNW 6 11 3 6 - - 0.0
01/02:30am 12.9 12.2 12.0 94 0.5 N 7 13 4 7 - - 0.0
01/02:00am 11.6 11.7 10.3 92 0.7 CALM 0 6 0 3 - - 0.0
01/01:30am 12.0 11.9 10.7 92 0.7 S 2 7 1 4 - - 0.0
01/01:00am 12.7 13.1 11.4 92 0.7 CALM 0 0 0 0 - - 0.0
01/12:30am 12.7 13.1 11.4 92 0.7 CALM 0 0 0 0 - - 0.0
01/12:00am 12.6 13.0 11.3 92 0.7 CALM 0 0 0 0 - - 0.0
 
Date/Time
EST
Temp
°C
App
Temp
°C
Dew
Point
°C
Rel
Hum
%
Delta-T
°C
Wind Press
QNH
hPa
Press
MSL
hPa
Rain since
9am
mm
Dir  Spd
km/h
Gust
km/h
Spd
kts
Gust
kts
30/11:30pm 12.4 12.8 11.1 92 0.7 CALM 0 6 0 3 - - 0.0
30/11:00pm 12.0 11.1 10.7 92 0.7 N 6 7 3 4 - - 0.0
30/10:30pm 12.0 11.9 10.9 93 0.6 N 2 7 1 4 - - 0.0
30/10:00pm 11.7 11.9 10.4 92 0.7 CALM 0 0 0 0 - - 0.0
30/09:30pm 11.3 11.3 9.9 91 0.7 CALM 0 0 0 0 - - 0.0
30/09:00pm 11.8 12.0 10.4 91 0.7 CALM 0 0 0 0 - - 0.0
30/08:30pm 12.0 12.2 10.6 91 0.7 CALM 0 0 0 0 - - 0.0
30/08:00pm 11.9 12.0 10.3 90 0.8 CALM 0 0 0 0 - - 0.0
30/07:30pm 12.2 12.3 10.3 88 1.0 CALM 0 0 0 0 - - 0.0
30/07:00pm 12.9 13.2 10.8 87 1.1 CALM 0 0 0 0 - - 0.0
30/06:30pm 14.0 14.5 11.7 86 1.2 CALM 0 0 0 0 - - 0.0
30/06:00pm 14.3 14.7 11.3 82 1.6 CALM 0 0 0 0 - - 0.0
30/05:30pm 15.8 16.3 11.6 76 2.3 CALM 0 0 0 0 - - 0.0
30/05:00pm 16.8 17.5 12.1 74 2.6 CALM 0 4 0 2 - - 0.0
30/04:30pm 17.7 18.2 11.5 67 3.4 CALM 0 0 0 0 - - 0.0
30/04:00pm 18.7 18.2 10.8 60 4.3 ENE 4 7 2 4 - - 0.0
30/03:30pm 20.2 19.4 11.1 56 5.0 E 6 11 3 6 - - 0.0
30/03:00pm 20.2 19.3 11.4 57 4.9 E 7 13 4 7 - - 0.0
30/02:30pm 20.5 20.5 11.2 55 5.1 E 2 9 1 5 - - 0.0
30/02:00pm 19.8 20.4 11.8 60 4.4 CALM 0 0 0 0 - - 0.0
30/01:30pm 19.6 18.4 10.3 55 5.0 ENE 7 11 4 6 - - 0.0
30/01:00pm 21.1 21.2 11.4 54 5.4 NE 2 7 1 4 - - 0.0
30/12:30pm 20.6 19.9 11.5 56 5.0 ENE 6 9 3 5 - - 0.0
30/12:00pm 20.8 19.8 10.9 53 5.4 N 7 11 4 6 - - 0.0
30/11:30am 20.0 19.2 11.0 56 4.9 E 6 11 3 6 - - 0.0
30/11:00am 19.2 18.3 10.7 58 4.6 S 6 9 3 5 - - 0.0
30/10:30am 18.7 17.6 10.0 57 4.6 SSW 6 9 3 5 - - 0.0
30/10:00am 17.8 17.1 10.2 61 4.0 SW 4 7 2 4 - - 0.0
30/09:30am 16.4 16.2 10.5 68 3.1 SSW 2 6 1 3 - - 0.0
30/09:00am 15.0 15.1 10.2 73 2.5 CALM 0 0 0 0 - - 0.0
30/08:30am 13.5 13.7 10.5 82 1.6 CALM 0 0 0 0 - - 0.0
30/08:00am 10.7 10.7 9.9 95 0.4 CALM 0 0 0 0 - - 0.0
30/07:30am 7.9 7.2 7.0 94 0.4 CALM 0 0 0 0 - - 0.0
30/07:00am 7.1 6.2 6.2 94 0.4 CALM 0 0 0 0 - - 0.0
30/06:30am 6.8 5.9 5.9 94 0.4 CALM 0 0 0 0 - - 0.0
30/06:00am 6.7 5.7 5.8 94 0.4 CALM 0 0 0 0 - - 0.0
30/05:30am 7.2 6.4 6.3 94 0.4 CALM 0 0 0 0 - - 0.0
30/05:00am 7.1 6.2 6.2 94 0.4 CALM 0 0 0 0 - - 0.0
30/04:30am 6.8 5.9 5.9 94 0.4 CALM 0 0 0 0 - - 0.0
30/04:00am 7.0 6.1 6.1 94 0.4 CALM 0 0 0 0 - - 0.0
30/03:30am 7.0 6.1 6.1 94 0.4 CALM 0 0 0 0 - - 0.0
30/03:00am 6.6 5.6 5.6 93 0.4 CALM 0 0 0 0 - - 0.0
30/02:30am 6.7 5.7 5.8 94 0.4 CALM 0 0 0 0 - - 0.0
30/02:00am 6.8 5.8 5.7 93 0.5 CALM 0 0 0 0 - - 0.0
30/01:30am 6.6 5.6 5.6 93 0.4 CALM 0 0 0 0 - - 0.0
30/01:00am 6.8 5.8 5.7 93 0.5 CALM 0 0 0 0 - - 0.0
30/12:30am 7.0 6.1 5.9 93 0.5 CALM 0 0 0 0 - - 0.0
30/12:00am 7.1 6.2 6.0 93 0.5 CALM 0 0 0 0 - - 0.0
 
Date/Time
EST
Temp
°C
App
Temp
°C
Dew
Point
°C
Rel
Hum
%
Delta-T
°C
Wind Press
QNH
hPa
Press
MSL
hPa
Rain since
9am
mm
Dir  Spd
km/h
Gust
km/h
Spd
kts
Gust
kts
29/11:30pm 7.2 6.3 6.1 93 0.5 CALM 0 0 0 0 - - 0.0
29/11:00pm 7.2 6.3 6.0 92 0.5 CALM 0 0 0 0 - - 0.0
29/10:30pm 7.5 6.7 6.3 92 0.5 CALM 0 0 0 0 - - 0.0
29/10:00pm 7.8 7.0 6.6 92 0.6 CALM 0 0 0 0 - - 0.0
29/09:30pm 8.0 7.2 6.6 91 0.6 CALM 0 0 0 0 - - 0.0
29/09:00pm 8.4 7.7 7.0 91 0.7 CALM 0 0 0 0 - - 0.0
29/08:30pm 8.8 7.8 7.4 91 0.7 SW 2 6 1 3 - - 0.0
29/08:00pm 9.1 8.1 7.4 89 0.8 SW 2 6 1 3 - - 0.0
29/07:30pm 9.6 9.1 7.9 89 0.8 CALM 0 0 0 0 - - 0.0

Other Formats:

Comma delimited format used in spreadsheet applications
http://www.bom.gov.au/fwo/IDQ60801/IDQ60801.95566.axf

JavaScript Object Notation format (JSON) in row-major order
http://www.bom.gov.au/fwo/IDQ60801/IDQ60801.95566.json